• Join FlightAware (Why Join?)
  • Login
  • US Flag 
02:26AM EDT


 

Airport Tracker/Info


-or-


 

Live Flight TrackerFlight Track Log ✈ SWA1969 ✈ 05-Apr-2013 ✈ KOKC - KMDW

Flight Track Log - Related Links

Times and Time Zones

All times are in EDT time to prevent confusion due to time zone crossing. See the SWA1969 flight status page for this flight to view local times or setup timezone preferences in your user account.

Time Position Orientation Groundspeed Altitude Reporting Facility
EDT Latitude Longitude Course Direction KTS MPH feet Rate Location/Type
08:54AM 35.4561 -97.5844 35° Northeast 251 289 4,000  Level Fort Worth Center
08:55AM 35.4875 -97.5106 62° Northeast 277 319 5,500 2,580 Climbing Fort Worth Center
08:57AM 35.5447 -97.3781 62° Northeast 277 319 11,000 2,940 Climbing Kansas City Center
08:58AM 35.5958 -97.2567 63° Northeast 326 375 13,700 2,700 Climbing Kansas City Center
08:59AM 35.6417 -97.1456 63° Northeast 356 410 16,600 2,640 Climbing Kansas City Center
09:00AM 35.6914 -97.0261 63° Northeast 382 440 19,100 2,460 Climbing Kansas City Center
09:01AM 35.7425 -96.9022 63° Northeast 400 460 21,700 2,340 Climbing Kansas City Center
09:02AM 35.7956 -96.7739 63° Northeast 415 478 24,000 2,040 Climbing Kansas City Center
09:03AM 35.8622 -96.6539 56° Northeast 431 496 26,000 1,860 Climbing Kansas City Center
09:04AM 35.9453 -96.5489 46° Northeast 430 495 27,800 1,680 Climbing Kansas City Center
09:05AM 36.0292 -96.4392 47° Northeast 437 503 29,500 1,860 Climbing Kansas City Center
09:06AM 36.1164 -96.3242 47° Northeast 443 510 31,700 1,920 Climbing Kansas City Center
09:07AM 36.2003 -96.2161 46° Northeast 437 503 33,500 1,560 Climbing Kansas City Center
09:08AM 36.2989 -96.0847 47° Northeast 434 499 35,000 720 Climbing Kansas City Center
09:09AM 36.3822 -95.9747 47° Northeast 435 501 35,000  Level Kansas City Center
09:10AM 36.4642 -95.8656 47° Northeast 430 495 35,000  Level Kansas City Center
09:11AM 36.5461 -95.7564 47° Northeast 428 493 35,000  Level Kansas City Center
09:12AM 36.6292 -95.6469 47° Northeast 428 493 35,000 240 Level Kansas City Center
09:13AM 36.7111 -95.5358 47° Northeast 429 494 35,500 960 Climbing Kansas City Center
09:14AM 36.7911 -95.4258 48° Northeast 426 490 37,100 1,380 Climbing Kansas City Center
09:15AM 36.8714 -95.3175 47° Northeast 422 486 38,400 900 Climbing Kansas City Center
09:16AM 36.9508 -95.2106 47° Northeast 419 482 39,000 240 Climbing Kansas City Center
09:17AM 37.0292 -95.1039 47° Northeast 416 479 39,000  Level Kansas City Center
09:18AM 37.1075 -94.9964 48° Northeast 417 480 39,000  Level Kansas City Center
09:19AM 37.1861 -94.8881 48° Northeast 417 480 39,000  Level Kansas City Center
09:20AM 37.2792 -94.7617 47° Northeast 412 474 39,000  Level Kansas City Center
09:21AM 37.3558 -94.6583 47° Northeast 406 467 39,000  Level Kansas City Center
09:22AM 37.4308 -94.5511 49° Northeast 406 467 39,000  Level Kansas City Center
09:23AM 37.5067 -94.4453 48° Northeast 406 467 39,000  Level Kansas City Center
09:25AM 37.5836 -94.3414 47° Northeast 406 467 39,000  Level Kansas City Center
09:26AM 37.6603 -94.2322 48° Northeast 412 474 39,000  Level Kansas City Center
09:27AM 37.7339 -94.1294 48° Northeast 412 474 39,000  Level Kansas City Center
09:28AM 37.8264 -94.0006 48° Northeast 410 472 39,000  Level Kansas City Center
09:29AM 37.9019 -93.8931 48° Northeast 408 470 39,000  Level Kansas City Center
09:30AM 37.9781 -93.7853 48° Northeast 407 468 39,000  Level Kansas City Center
09:31AM 38.0536 -93.6772 48° Northeast 408 470 39,000  Level Kansas City Center
09:32AM 38.1289 -93.5697 48° Northeast 406 467 39,000  Level Kansas City Center
09:33AM 38.2050 -93.4600 49° Northeast 408 470 39,000  Level Kansas City Center
09:34AM 38.2811 -93.3500 49° Northeast 410 472 39,000  Level Kansas City Center
09:35AM 38.3583 -93.2411 48° Northeast 411 473 39,000  Level Kansas City Center
09:36AM 38.4342 -93.1308 49° Northeast 410 472 39,000  Level Kansas City Center
09:37AM 38.5261 -92.9975 49° Northeast 412 474 39,000  Level Kansas City Center
09:38AM 38.6014 -92.8864 49° Northeast 411 473 39,000  Level Kansas City Center
09:39AM 38.6764 -92.7758 49° Northeast 409 471 39,000  Level Kansas City Center
09:40AM 38.7508 -92.6653 49° Northeast 408 470 39,000  Level Kansas City Center
09:41AM 38.8250 -92.5572 49° Northeast 404 465 39,000  Level Kansas City Center
09:42AM 38.8986 -92.4492 49° Northeast 401 461 39,000  Level Kansas City Center
09:43AM 38.9714 -92.3403 49° Northeast 399 459 39,000  Level Kansas City Center
09:44AM 39.0442 -92.2317 49° Northeast 399 459 39,000  Level Kansas City Center
09:45AM 39.1164 -92.1233 49° Northeast 398 458 39,000  Level Kansas City Center
09:46AM 39.1983 -91.9825 53° Northeast 401 461 39,000  Level Kansas City Center
09:47AM 39.2622 -91.8700 54° Northeast 406 467 39,000  Level Kansas City Center
09:48AM 39.3289 -91.7528 54° Northeast 408 470 39,000 -960 Level Kansas City Center
09:49AM 39.4019 -91.6264 53° Northeast 409 471 37,100 -1,380 Descending Kansas City Center
09:50AM 39.4686 -91.5086 54° Northeast 407 468 36,200 -960 Descending Kansas City Center
09:51AM 39.5414 -91.3797 54° Northeast 406 467 35,200 -600 Descending Kansas City Center
09:52AM 39.6011 -91.2719 54° Northeast 406 467 35,000 -120 Descending Kansas City Center
09:53AM 39.6686 -91.1531 54° Northeast 407 468 35,000  Level Kansas City Center
09:54AM 39.7436 -91.0469 47° Northeast 403 464 35,000  Level Kansas City Center
09:55AM 39.8411 -90.9478 38° Northeast 387 445 35,000 -480 Level Kansas City Center
09:57AM 39.9258 -90.8642 37° Northeast 383 441 34,100 -960 Descending Kansas City Center
09:58AM 40.0094 -90.7789 38° Northeast 383 441 33,100 -960 Descending Kansas City Center
09:59AM 40.0853 -90.6742 47° Northeast 397 457 32,200 -1,020 Descending Kansas City Center
09:59AM 40.1442 -90.5867 49° Northeast 399 459 31,400 -720 Descending Chicago Center
10:00AM 40.2211 -90.4767 47° Northeast 409 471 31,000 -240 Descending Chicago Center
10:01AM 40.2975 -90.3650 48° Northeast 410 472 31,000  Level Chicago Center
10:02AM 40.3725 -90.2525 49° Northeast 410 472 31,000 -120 Level Chicago Center
10:03AM 40.4475 -90.1414 48° Northeast 408 470 30,800 -1,260 Descending Chicago Center
10:04AM 40.5278 -90.0206 49° Northeast 380 437 28,500 -2,160 Descending Chicago Center
10:05AM 40.5975 -89.9167 49° Northeast 380 437 26,400 -2,100 Descending Chicago Center
10:06AM 40.6642 -89.8131 50° Northeast 372 428 24,200 -1,560 Descending Chicago Center
10:07AM 40.7225 -89.6950 57° Northeast 386 444 23,200 -1,440 Descending Chicago Center
10:08AM 40.7731 -89.5781 60° Northeast 372 428 21,300 -2,040 Descending Chicago Center
10:09AM 40.8314 -89.4422 60° Northeast 364 419 19,100 -1,860 Descending Chicago Center
10:11AM 40.8828 -89.3303 59° Northeast 359 413 17,500 -1,260 Descending Chicago Center
10:12AM 40.9483 -89.2361 47° Northeast 353 406 16,600 -960 Descending Chicago Center
10:13AM 41.0125 -89.1383 49° Northeast 352 405 15,600 -1,020 Descending Chicago Center
10:14AM 41.0733 -89.0450 49° Northeast 340 391 14,600 -1,020 Descending Chicago Center
10:15AM 41.1336 -88.9511 50° Northeast 337 388 13,600 -1,380 Descending Chicago Center
10:16AM 41.2056 -88.8425 49° Northeast 333 383 11,800 -1,680 Descending Chicago Center
10:17AM 41.2631 -88.7547 49° Northeast 322 371 10,200 -1,260 Descending Chicago Center
10:18AM 41.3144 -88.6742 50° Northeast 293 337 9,300 -1,140 Descending Chicago Center
10:19AM 41.3650 -88.5986 48° Northeast 279 321 7,900 -1,380 Descending Chicago Center
10:20AM 41.4133 -88.5231 50° Northeast 273 314 6,500 -1,020 Descending Chicago Center
10:21AM 41.4611 -88.4508 49° Northeast 267 307 5,900 -660 Descending Chicago Center
10:22AM 41.4842 -88.3572 72° East 246 283 5,200 -840 Descending Chicago Center
10:23AM 41.4933 -88.2739 82° East 233 268 4,200 -660 Descending Chicago Center
10:24AM 41.5133 -88.1989 70° East 218 251 3,900 -120 Descending Chicago Center
10:25AM 41.5328 -88.1242 71° East 213 245 4,000  Climbing Chicago Center
10:26AM 41.5525 -88.0494 71° East 213 245 4,000  Level Chicago Center
10:27AM 41.5936 -87.9939 45° Northeast 215 247 4,000 -60 Level Chicago Center
10:28AM 41.6344 -87.9425 43° Northeast 206 237 3,900 -300 Descending Chicago Center
10:29AM 41.6814 -87.8833 43° Northeast 199 229 3,400 -660 Descending Chicago Center
10:30AM 41.7167 -87.8500 35° Northeast 193 222 2,700 -780 Descending Chicago TRACON
10:31AM 41.7500 -87.8000 48° Northeast 135 155 2,100 -840 Descending Chicago TRACON
10:32AM 41.7667 -87.7833 37° Northeast 124 143 1,200 -1,020 Descending Chicago TRACON
10:34AM 41.7833 -87.7500 North  Level FlightAware Approximate